createdAt,value
2023-02-17T00:12:21.319Z,2.20
2023-02-17T00:37:36.042Z,1.70
2023-02-17T00:42:42.797Z,1.70
2023-02-17T00:47:56.201Z,1.60
2023-02-17T01:13:12.329Z,2.70
2023-02-17T01:18:16.355Z,2.90
2023-02-17T01:23:19.346Z,2.70
2023-02-17T01:28:23.122Z,2.70
2023-02-17T01:48:44.767Z,3.00
2023-02-17T01:54:01.544Z,3.10
2023-02-17T01:59:13.035Z,3.30
2023-02-17T02:04:19.190Z,3.50
2023-02-17T02:09:36.524Z,3.60
2023-02-17T02:20:06.491Z,3.50
2023-02-17T02:25:18.332Z,3.70
2023-02-17T02:30:50.568Z,3.50
2023-02-17T02:36:09.775Z,3.40
2023-02-17T02:41:24.105Z,3.30
2023-02-17T02:51:33.579Z,3.50
2023-02-17T02:56:51.473Z,3.70
2023-02-17T03:02:20.381Z,3.80
2023-02-17T03:07:50.980Z,4.00
2023-02-17T03:12:54.217Z,4.10
2023-02-17T03:17:58.446Z,4.20
2023-02-17T03:23:01.047Z,4.20
2023-02-17T03:38:11.337Z,4.10
2023-02-17T03:48:17.252Z,4.10
2023-02-17T03:53:19.804Z,4.20
2023-02-17T03:58:22.299Z,4.30
2023-02-17T04:08:28.149Z,4.30
2023-02-17T04:18:34.777Z,4.40
2023-02-17T04:28:42.162Z,4.50
2023-02-17T04:33:44.796Z,4.40
2023-02-17T04:43:50.283Z,4.40
2023-02-17T05:19:11.144Z,4.00
2023-02-17T05:29:16.773Z,4.00
2023-02-17T05:39:22.069Z,4.10
2023-02-17T05:44:24.700Z,4.20
2023-02-17T05:54:30.610Z,4.30
2023-02-17T05:59:33.156Z,4.30
2023-02-17T06:04:36.456Z,4.40
2023-02-17T06:14:42.063Z,4.50
2023-02-17T06:34:54.673Z,4.70
2023-02-17T06:39:57.342Z,4.70
2023-02-17T06:50:04.178Z,4.70
2023-02-17T07:00:12.039Z,4.60
2023-02-17T07:05:14.739Z,4.70
2023-02-17T07:15:21.168Z,4.90
2023-02-17T07:35:33.491Z,5.10
2023-02-17T07:40:39.248Z,5.30
2023-02-17T07:45:41.929Z,5.30
2023-02-17T07:50:44.536Z,5.30
2023-02-17T07:55:47.046Z,5.40
2023-02-17T08:00:49.652Z,5.50
2023-02-17T08:05:53.134Z,5.40
2023-02-17T08:11:14.219Z,5.40
2023-02-17T08:16:17.131Z,5.60
2023-02-17T08:21:19.814Z,5.90
2023-02-17T08:26:23.021Z,6.00
2023-02-17T08:31:34.744Z,6.10
2023-02-17T08:36:37.719Z,6.20
2023-02-17T08:41:41.205Z,6.20
2023-02-17T08:46:44.993Z,6.30
2023-02-17T08:51:47.980Z,6.50
2023-02-17T08:56:50.548Z,6.50
2023-02-17T09:01:53.096Z,6.50
2023-02-17T09:06:56.830Z,6.30
2023-02-17T09:17:04.489Z,6.50
2023-02-17T09:22:07.188Z,6.30
2023-02-17T09:27:10.404Z,6.10
2023-02-17T09:32:13.029Z,6.00
2023-02-17T09:37:17.574Z,5.90
2023-02-17T09:42:21.615Z,5.80
2023-02-17T09:47:29.501Z,5.60
2023-02-17T09:52:36.128Z,5.70
2023-02-17T09:57:47.860Z,5.90
2023-02-17T10:02:56.211Z,6.00
2023-02-17T10:08:21.628Z,6.10
2023-02-17T10:13:29.662Z,5.90
2023-02-17T10:18:46.754Z,6.20
2023-02-17T10:29:00.807Z,6.20
2023-02-17T10:34:11.813Z,6.10
2023-02-17T10:39:23.132Z,6.00
2023-02-17T10:44:26.194Z,6.10
2023-02-17T10:49:47.198Z,6.10
2023-02-17T10:55:24.342Z,6.30
2023-02-17T11:00:27.658Z,6.30
2023-02-17T11:05:34.960Z,6.40
2023-02-17T11:10:41.092Z,6.40
2023-02-17T11:15:45.996Z,6.40
2023-02-17T11:20:48.755Z,6.40
2023-02-17T11:26:09.018Z,6.50
2023-02-17T11:31:25.212Z,6.60
2023-02-17T11:36:32.389Z,6.70
2023-02-17T11:41:41.066Z,6.70
2023-02-17T11:47:02.314Z,6.70
2023-02-17T11:52:29.463Z,6.80
2023-02-17T11:58:10.141Z,6.90
2023-02-17T12:03:56.864Z,6.90
2023-02-17T12:09:10.898Z,7.20
2023-02-17T12:14:25.538Z,7.30
2023-02-17T12:20:14.497Z,7.30
2023-02-17T12:25:28.104Z,7.30
2023-02-17T12:30:46.288Z,7.20
2023-02-17T12:35:57.847Z,7.20
2023-02-17T12:41:11.768Z,7.30
2023-02-17T12:46:24.127Z,7.30
2023-02-17T12:51:39.511Z,7.20
2023-02-17T12:56:55.057Z,7.20
2023-02-17T13:02:04.809Z,7.20
2023-02-17T13:07:19.113Z,7.30
2023-02-17T13:12:23.424Z,7.40
2023-02-17T13:17:32.018Z,7.30
2023-02-17T13:22:34.964Z,7.50
2023-02-17T13:27:39.715Z,7.40
2023-02-17T13:32:42.300Z,7.50
2023-02-17T13:37:46.225Z,7.50
2023-02-17T13:42:52.782Z,7.40
2023-02-17T13:48:01.113Z,7.40
2023-02-17T13:53:21.213Z,7.40
2023-02-17T13:58:29.050Z,6.00
2023-02-17T14:03:52.947Z,7.00
2023-02-17T14:08:56.572Z,6.90
2023-02-17T14:13:59.795Z,6.80
2023-02-17T14:19:12.616Z,7.00
2023-02-17T14:24:27.621Z,7.00
2023-02-17T14:29:47.755Z,7.00
2023-02-17T14:34:50.239Z,7.00
2023-02-17T14:39:52.858Z,7.00
2023-02-17T14:44:55.365Z,7.00
2023-02-17T14:49:58.134Z,7.00
2023-02-17T14:55:00.716Z,7.00
2023-02-17T15:00:08.182Z,7.00
2023-02-17T15:05:10.849Z,7.00
2023-02-17T15:10:25.970Z,7.00
2023-02-17T15:20:31.489Z,6.90
2023-02-17T15:25:34.520Z,6.80
2023-02-17T15:30:37.212Z,6.70
2023-02-17T15:35:41.039Z,6.80
2023-02-17T15:45:47.651Z,7.00
2023-02-17T15:50:50.400Z,7.00
2023-02-17T15:55:53.560Z,6.90
2023-02-17T16:01:01.629Z,7.00
2023-02-17T16:06:04.259Z,7.00
2023-02-17T16:11:13.283Z,7.00
2023-02-17T16:16:19.362Z,6.90
2023-02-17T16:21:23.404Z,6.90
2023-02-17T16:26:30.072Z,6.90
2023-02-17T16:31:33.274Z,6.90
2023-02-17T16:36:36.055Z,7.00
2023-02-17T16:41:38.896Z,7.00
2023-02-17T16:46:56.240Z,7.20
2023-02-17T16:52:08.699Z,7.20
2023-02-17T16:57:18.422Z,7.30
2023-02-17T17:02:22.236Z,7.30
2023-02-17T17:07:24.971Z,7.30
2023-02-17T17:12:27.606Z,7.40
2023-02-17T17:17:31.380Z,7.40
2023-02-17T17:22:33.923Z,7.40
2023-02-17T17:27:37.443Z,7.50
2023-02-17T17:32:40.133Z,7.50
2023-02-17T17:37:42.871Z,7.60
2023-02-17T17:42:45.771Z,7.70
2023-02-17T17:47:48.561Z,7.70
2023-02-17T17:52:53.632Z,7.70
2023-02-17T17:57:57.092Z,7.70
2023-02-17T18:02:59.851Z,7.80
2023-02-17T18:08:02.734Z,7.80
2023-02-17T18:13:05.599Z,7.90
2023-02-17T18:18:08.684Z,8.00
2023-02-17T18:23:11.422Z,8.10
2023-02-17T18:28:16.326Z,8.20
2023-02-17T18:33:19.041Z,8.30
2023-02-17T18:38:22.176Z,8.30
2023-02-17T18:43:24.779Z,8.40
2023-02-17T18:48:27.607Z,8.50
2023-02-17T18:53:30.560Z,8.60
2023-02-17T18:58:33.094Z,8.70
2023-02-17T19:03:35.634Z,8.70
2023-02-17T19:08:38.403Z,8.80
2023-02-17T19:13:41.776Z,8.80
2023-02-17T19:18:45.964Z,9.00
2023-02-17T19:23:50.267Z,9.00
2023-02-17T19:28:52.872Z,9.10
2023-02-17T19:33:55.335Z,9.10
2023-02-17T19:38:58.444Z,9.20
2023-02-17T19:44:01.981Z,9.20
2023-02-17T19:49:05.545Z,9.20
2023-02-17T19:54:08.089Z,9.30
2023-02-17T19:59:11.168Z,9.40
2023-02-17T20:04:13.949Z,9.40
2023-02-17T20:09:21.483Z,9.40
2023-02-17T20:14:24.010Z,9.50
2023-02-17T20:19:27.913Z,9.50
2023-02-17T20:24:32.895Z,9.40
2023-02-17T20:29:36.357Z,9.50
2023-02-17T20:34:40.117Z,9.50
2023-02-17T20:39:42.965Z,9.60
2023-02-17T20:44:45.961Z,9.80
2023-02-17T20:49:48.826Z,9.90
2023-02-17T20:54:51.475Z,9.90
2023-02-17T20:59:54.015Z,10.00
2023-02-17T21:04:56.454Z,10.00
2023-02-17T21:09:59.058Z,10.00
2023-02-17T21:15:01.765Z,10.00
2023-02-17T21:20:09.363Z,10.00
2023-02-17T21:45:25.542Z,7.40
2023-02-17T21:55:32.121Z,6.90
2023-02-17T22:10:42.071Z,6.20
2023-02-17T22:36:06.333Z,6.20
2023-02-17T22:41:14.825Z,6.20
2023-02-17T22:46:18.973Z,6.00
2023-02-17T22:51:25.325Z,6.00
2023-02-17T23:01:32.984Z,5.60
2023-02-17T23:06:37.953Z,5.30
2023-02-17T23:11:50.180Z,5.00
2023-02-17T23:16:55.153Z,5.30
2023-02-17T23:22:00.921Z,5.40
2023-02-17T23:27:04.076Z,5.40
2023-02-17T23:42:12.712Z,5.40
